createdAt,value
2018-12-27T00:00:54.976Z,17.67
2018-12-27T00:05:00.662Z,17.03
2018-12-27T00:09:07.967Z,16.47
2018-12-27T00:13:13.662Z,17.80
2018-12-27T00:17:19.457Z,17.97
2018-12-27T00:21:25.153Z,18.43
2018-12-27T00:25:30.845Z,19.83
2018-12-27T00:29:36.547Z,20.03
2018-12-27T00:33:42.424Z,19.70
2018-12-27T00:37:48.329Z,18.70
2018-12-27T00:41:54.245Z,17.97
2018-12-27T00:46:01.803Z,16.87
2018-12-27T00:50:07.674Z,17.17
2018-12-27T00:54:13.578Z,19.17
2018-12-27T00:58:29.629Z,16.20
2018-12-27T01:02:47.488Z,18.57
2018-12-27T01:07:30.313Z,17.87
2018-12-27T01:16:41.454Z,17.53
2018-12-27T01:20:59.084Z,17.70
2018-12-27T01:35:12.449Z,19.50
2018-12-27T02:19:23.917Z,17.83
2018-12-27T02:39:44.737Z,18.67
2018-12-27T03:19:12.659Z,15.53
2018-12-27T03:34:36.768Z,15.17
2018-12-27T03:58:35.900Z,13.43
2018-12-27T04:17:45.679Z,13.37
2018-12-27T04:22:10.719Z,18.00
2018-12-27T04:31:04.332Z,14.20
2018-12-27T04:35:16.801Z,14.27
2018-12-27T04:39:22.632Z,13.87
2018-12-27T04:43:29.151Z,13.73
2018-12-27T04:47:35.090Z,13.20
2018-12-27T04:51:40.845Z,16.07
2018-12-27T04:55:46.591Z,14.63
2018-12-27T04:59:53.729Z,14.90
2018-12-27T05:03:59.589Z,14.33
2018-12-27T05:08:10.781Z,15.07
2018-12-27T05:12:16.508Z,12.90
2018-12-27T05:16:22.303Z,14.90
2018-12-27T05:20:28.140Z,14.13
2018-12-27T05:24:33.930Z,13.80
2018-12-27T05:28:39.684Z,12.50
2018-12-27T05:32:45.447Z,13.63
2018-12-27T05:36:51.298Z,13.27
2018-12-27T05:40:57.080Z,12.60
2018-12-27T05:45:03.147Z,13.17
2018-12-27T05:49:14.773Z,14.33
2018-12-27T05:53:20.504Z,13.17
2018-12-27T05:57:26.507Z,12.60
2018-12-27T06:01:32.680Z,12.00
2018-12-27T06:05:38.542Z,12.33
2018-12-27T06:09:45.985Z,12.63
2018-12-27T06:13:53.713Z,12.90
2018-12-27T06:17:59.415Z,13.50
2018-12-27T06:22:11.441Z,13.90
2018-12-27T06:26:17.157Z,13.43
2018-12-27T06:30:22.960Z,13.45
2018-12-27T06:34:28.793Z,12.83
2018-12-27T06:38:34.669Z,13.57
2018-12-27T06:42:40.390Z,12.43
2018-12-27T06:46:46.219Z,15.13
2018-12-27T06:50:52.085Z,12.80
2018-12-27T06:54:57.826Z,12.63
2018-12-27T06:59:03.817Z,13.00
2018-12-27T07:03:13.778Z,9.97
2018-12-27T07:07:19.508Z,12.03
2018-12-27T07:11:25.247Z,10.47
2018-12-27T07:15:31.137Z,10.73
2018-12-27T07:19:37.020Z,11.40
2018-12-27T07:23:43.052Z,12.90
2018-12-27T07:27:50.437Z,11.70
2018-12-27T07:31:56.243Z,10.97
2018-12-27T07:36:02.086Z,12.35
2018-12-27T07:40:14.304Z,11.03
2018-12-27T07:44:20.074Z,11.00
2018-12-27T07:48:27.992Z,12.77
2018-12-27T07:52:40.541Z,11.30
2018-12-27T07:56:51.687Z,12.00
2018-12-27T08:00:57.476Z,12.07
2018-12-27T08:09:20.819Z,13.80
2018-12-27T08:13:26.562Z,12.03
2018-12-27T08:17:35.341Z,12.70
2018-12-27T08:21:41.103Z,10.30
2018-12-27T08:25:47.356Z,10.60
2018-12-27T08:29:53.178Z,10.80
2018-12-27T08:33:58.991Z,11.47
2018-12-27T08:38:04.950Z,11.10
2018-12-27T08:42:16.615Z,10.23
2018-12-27T08:46:22.438Z,12.57
2018-12-27T08:50:28.258Z,10.03
2018-12-27T08:54:34.253Z,10.20
2018-12-27T08:58:40.032Z,13.73
2018-12-27T09:02:45.710Z,9.30
2018-12-27T09:06:51.580Z,11.57
2018-12-27T09:10:57.708Z,11.67
2018-12-27T09:15:13.429Z,11.73
2018-12-27T09:19:19.254Z,12.67
2018-12-27T09:23:25.084Z,12.97
2018-12-27T09:27:30.993Z,11.17
2018-12-27T09:31:36.998Z,10.17
2018-12-27T09:35:42.818Z,12.57
2018-12-27T09:39:51.520Z,10.17
2018-12-27T10:04:53.652Z,10.70
2018-12-27T10:08:59.400Z,11.37
2018-12-27T10:13:05.264Z,9.03
2018-12-27T10:17:16.865Z,10.00
2018-12-27T10:21:22.596Z,10.63
2018-12-27T10:25:28.269Z,11.03
2018-12-27T10:29:33.991Z,9.10
2018-12-27T10:33:39.827Z,8.73
2018-12-27T10:37:45.570Z,12.53
2018-12-27T10:41:51.284Z,17.27
2018-12-27T10:45:57.069Z,16.70
2018-12-27T10:50:04.767Z,18.00
2018-12-27T10:54:15.166Z,15.33
2018-12-27T10:58:20.888Z,14.97
2018-12-27T11:02:26.623Z,14.33
2018-12-27T11:06:32.350Z,15.80
2018-12-27T11:10:38.176Z,17.03
2018-12-27T11:15:03.288Z,15.60
2018-12-27T11:19:13.466Z,16.40
2018-12-27T11:23:19.315Z,14.20
2018-12-27T11:27:25.074Z,13.33
2018-12-27T11:31:30.835Z,18.43
2018-12-27T11:35:36.545Z,16.67
2018-12-27T11:39:42.284Z,17.60
2018-12-27T11:43:48.057Z,16.13
2018-12-27T11:47:53.782Z,15.73
2018-12-27T11:51:59.503Z,15.70
2018-12-27T11:56:05.333Z,13.57
2018-12-27T12:00:16.582Z,16.97
2018-12-27T12:04:22.327Z,17.87
2018-12-27T12:08:28.086Z,15.97
2018-12-27T12:12:33.812Z,16.43
2018-12-27T12:16:39.577Z,17.87
2018-12-27T12:20:45.307Z,14.60
2018-12-27T12:24:51.021Z,15.40
2018-12-27T12:28:56.777Z,17.87
2018-12-27T12:33:02.580Z,15.80
2018-12-27T12:37:14.212Z,15.23
2018-12-27T12:41:19.502Z,17.40
2018-12-27T12:45:25.232Z,15.00
2018-12-27T12:49:30.922Z,14.80
2018-12-27T12:53:36.655Z,16.67
2018-12-27T12:57:42.427Z,17.63
2018-12-27T13:01:48.107Z,13.90
2018-12-27T13:05:53.837Z,13.33
2018-12-27T13:09:59.609Z,15.97
2018-12-27T13:14:05.367Z,15.57
2018-12-27T13:18:17.883Z,13.77
2018-12-27T13:22:23.792Z,14.77
2018-12-27T13:26:29.498Z,13.27
2018-12-27T13:30:35.216Z,15.17
2018-12-27T13:34:40.979Z,15.70
2018-12-27T13:38:46.723Z,14.40
2018-12-27T13:42:52.476Z,15.10
2018-12-27T13:46:58.330Z,14.77
2018-12-27T13:51:04.120Z,12.17
2018-12-27T13:55:17.207Z,14.03
2018-12-27T13:59:22.886Z,14.63
2018-12-27T14:03:28.616Z,14.03
2018-12-27T14:07:34.361Z,17.07
2018-12-27T14:11:40.094Z,21.73
2018-12-27T14:15:45.814Z,14.03
2018-12-27T14:19:51.544Z,16.93
2018-12-27T14:23:57.351Z,15.03
2018-12-27T14:28:03.055Z,15.33
2018-12-27T14:32:14.652Z,18.73
2018-12-27T14:36:20.482Z,16.60
2018-12-27T14:40:26.183Z,14.70
2018-12-27T14:44:31.937Z,15.13
2018-12-27T14:48:54.645Z,16.00
2018-12-27T14:53:00.534Z,17.50
2018-12-27T15:12:00.375Z,15.13
2018-12-27T15:16:21.744Z,14.93
2018-12-27T15:20:46.822Z,24.03
2018-12-27T15:25:11.507Z,15.20
2018-12-27T15:29:29.374Z,16.37
2018-12-27T15:33:54.534Z,18.45
2018-12-27T15:38:12.478Z,19.80
2018-12-27T15:42:55.788Z,21.97
2018-12-27T15:47:13.502Z,18.13
2018-12-27T15:52:34.593Z,16.90
2018-12-27T15:56:52.250Z,18.23
2018-12-27T16:06:16.360Z,18.42
2018-12-27T16:10:53.097Z,18.33
2018-12-27T16:15:18.147Z,20.13
2018-12-27T16:19:55.021Z,18.70
2018-12-27T16:24:20.066Z,18.43
2018-12-27T16:28:50.244Z,20.80
2018-12-27T16:33:08.476Z,22.57
2018-12-27T16:48:05.511Z,17.70
2018-12-27T16:52:48.335Z,20.83
2018-12-27T17:02:12.714Z,20.37
2018-12-27T17:06:57.079Z,17.80
2018-12-27T17:22:06.210Z,21.40
2018-12-27T17:31:58.653Z,23.33
2018-12-27T17:36:16.269Z,24.70
2018-12-27T17:40:59.029Z,16.87
2018-12-27T17:45:16.628Z,16.67
2018-12-27T17:50:24.280Z,17.03
2018-12-27T17:54:49.352Z,18.47
2018-12-27T17:59:05.395Z,19.50
2018-12-27T18:03:49.790Z,17.57
2018-12-27T18:08:08.036Z,19.13
2018-12-27T18:12:52.469Z,18.00
2018-12-27T18:16:58.184Z,23.13
2018-12-27T18:21:04.011Z,20.40
2018-12-27T18:25:09.740Z,22.40
2018-12-27T18:29:15.446Z,18.53
2018-12-27T18:33:21.200Z,19.27
2018-12-27T18:37:50.780Z,20.27
2018-12-27T18:41:56.496Z,23.30
2018-12-27T18:46:02.182Z,19.53
2018-12-27T18:50:07.940Z,20.33
2018-12-27T18:54:13.618Z,21.57
2018-12-27T18:58:49.354Z,23.97
2018-12-27T19:02:55.087Z,22.83
2018-12-27T19:07:00.854Z,21.20
2018-12-27T19:12:00.227Z,22.90
2018-12-27T19:16:05.960Z,23.87
2018-12-27T19:20:11.931Z,23.62
2018-12-27T19:24:17.654Z,22.80
2018-12-27T19:28:50.486Z,22.03
2018-12-27T19:32:56.206Z,26.07
2018-12-27T19:37:01.908Z,26.00
2018-12-27T19:41:07.612Z,22.80
2018-12-27T19:45:13.391Z,20.23
2018-12-27T19:49:19.114Z,22.73
2018-12-27T19:53:24.812Z,22.20
2018-12-27T19:57:30.526Z,23.77
2018-12-27T20:01:48.271Z,20.83
2018-12-27T20:24:46.721Z,21.57
2018-12-27T20:29:49.097Z,25.07
2018-12-27T20:33:54.802Z,21.53
2018-12-27T20:38:48.773Z,22.43
2018-12-27T20:42:54.505Z,22.03
2018-12-27T20:51:49.848Z,23.53
2018-12-27T20:55:55.628Z,21.80
2018-12-27T21:00:01.330Z,21.50
2018-12-27T21:04:07.137Z,25.55
2018-12-27T21:08:49.153Z,22.40
2018-12-27T21:12:54.834Z,24.70
2018-12-27T21:17:00.559Z,22.00
2018-12-27T21:21:06.255Z,22.63
2018-12-27T21:25:12.054Z,21.87
2018-12-27T21:29:17.716Z,20.90
2018-12-27T21:33:23.405Z,22.17
2018-12-27T21:38:00.531Z,22.93
2018-12-27T21:43:04.137Z,23.10
2018-12-27T21:47:21.742Z,25.20
2018-12-27T21:51:46.784Z,23.03
2018-12-27T21:56:04.353Z,23.97
2018-12-27T22:00:29.396Z,24.93
2018-12-27T22:04:45.352Z,22.77
2018-12-27T22:09:10.398Z,25.47
2018-12-27T22:13:28.231Z,26.02
2018-12-27T22:17:53.285Z,27.23
2018-12-27T22:22:10.985Z,22.10
2018-12-27T22:26:37.618Z,20.50
2018-12-27T22:31:04.514Z,23.07
2018-12-27T22:35:29.627Z,25.17
2018-12-27T22:39:50.237Z,23.30
2018-12-27T22:44:27.324Z,24.07
2018-12-27T22:48:52.380Z,21.35
2018-12-27T22:53:10.032Z,20.82
2018-12-27T23:02:51.051Z,22.27
2018-12-27T23:12:53.333Z,23.43
2018-12-27T23:17:10.901Z,23.60
2018-12-27T23:21:37.017Z,23.13
2018-12-27T23:25:57.642Z,23.53
2018-12-27T23:30:22.749Z,25.43
2018-12-27T23:34:40.465Z,26.03
2018-12-27T23:39:26.300Z,24.57
2018-12-27T23:43:50.529Z,25.53
2018-12-27T23:48:08.777Z,27.80
2018-12-27T23:52:26.400Z,24.90
2018-12-27T23:56:52.550Z,25.20
